KWYS/WYS METAR and TAF weather

Enter ICAO airport designator
Station Type Date Time Source
KWYS METAR 2021/10/20 06:35 UTC NOAA

KWYS 200635Z AUTO 00000KT 10SM CLR M02/M03 A3016 RMK AO2


Station Type Date Time Source
KWYS Decoded METAR 2021/10/20 06:35 UTC NOAA

West Yellowstone, MT, United States (KWYS) 44-41N 111-07W
Oct 20, 2021 - 02:35 AM EDT / 2021.10.20 0635 UTC
Wind: Calm:0
Visibility: 10 mile(s):0
Sky conditions: clear
Temperature: 28 F (-2 C)
Dew Point: 26 F (-3 C)
Relative Humidity: 92%
Pressure (altimeter): 30.16 in. Hg (1021 hPa)
ob: KWYS 200635Z AUTO 00000KT 10SM CLR M02/M03 A3016 RMK AO2
cycle: 6

Station Type Date Time Source
KWYS TAF 2021/10/20 06:20 UTC NOAA

TAF KWYS 200520Z 2006/2106 VRB06KT P6SM OVC060
FM200900 16007KT P6SM BKN011
FM201400 VRB04KT P6SM OVC050
FM201900 22012KT P6SM BKN200

Example: see airport list